CheckWX is a tool to help pilots better visualize weather data.  It is not intended as a substitute for an official pre-flight weather briefing.

06:13:45 UTC

FQMA METAR
Maputo Airport
Maputo, Mozambique
Current

1 hour ago

FQMA 230500Z 19007KT 9999 BKN020 22/21 Q1019 NOSIG
Observed
Apr-23 @ 05:00 UTC
Wind
  • 190° at 7 KTS
Visibility
10,000+ meters
Flight Rules
MVFR
Cloud Levels
  • Broken at 2,000' AGL
Temperature
22°C / 72°F
Dewpoint
21°C / 70°F
Humidity
94%
Altimeter
30.09" Hg
Pressure
1018.92 hPa
Previous

2 hours ago

FQMA 230400Z 20006KT 9999 BKN020 21/21 Q1019 NOSIG
Observed
Apr-23 @ 04:00 UTC
Wind
  • 200° at 6 KTS
Visibility
10,000+ meters
Flight Rules
MVFR
Cloud Levels
  • Broken at 2,000' AGL
Temperature
21°C / 70°F
Dewpoint
21°C / 70°F
Humidity
100%
Altimeter
30.09" Hg
Pressure
1018.92 hPa
Previous

3 hours ago

FQMA 230300Z 20005KT 9999 BKN020 21/21 Q1018 NOSIG
Observed
Apr-23 @ 03:00 UTC
Wind
  • 200° at 5 KTS
Visibility
10,000+ meters
Flight Rules
MVFR
Cloud Levels
  • Broken at 2,000' AGL
Temperature
21°C / 70°F
Dewpoint
21°C / 70°F
Humidity
100%
Altimeter
30.06" Hg
Pressure
1017.92 hPa